Gunnar Thorson — OUDU — position and weather

sailwx.info

Track history (hours):
 
Tides and Currents Weather Stations Pressure Air Temp Water Temp Dewpoint Dewpoint Depression Visibility Wind Speed Wind Dir Waves Ship Positions

Oceanographic research ship Gunnar Thorson (Denmark)

Detailed information on ship capabilities available from University of Delaware's Ocean Information Center.

Last reported at 2015-May-06 17:33 UTC. Time now 2015-May-06 18:32 UTC.
Position N 55°05' E 014°37'.

Length 48 m; draft 4.2 m.

Type: Military. MMSI: 219263000.

Date/timePositionNaut miles runAvg speedWind from/ knotsBaromVisibWave heightAir tempDewpointWater temp
2015-May-06 17:33N 55°05' E 014°37'6 5.7
2015-May-06 16:33N 55°06' E 014°27'0 0.0
2015-May-06 15:33N 55°06' E 014°27'0 0.0
2015-May-06 14:33N 55°06' E 014°27'0 0.0
2015-May-06 13:33N 55°06' E 014°27'0 0.0
2015-May-06 12:33N 55°06' E 014°27'0 0.0
2015-May-06 11:33N 55°06' E 014°27'0 0.1
2015-May-06 10:31N 55°06' E 014°27'6 6.0
2015-May-06 09:33N 55°01' E 014°23'8 7.6
2015-May-06 08:33N 55°04' E 014°35'4 4.2
2015-May-06 07:31N 55°06' E 014°42'0 0.0
2015-May-06 06:31N 55°06' E 014°42'0 0.0
2015-May-06 05:31N 55°06' E 014°42'0 0.0
2015-May-06 04:31N 55°06' E 014°42'0 0.0
2015-May-06 03:31N 55°06' E 014°42'0 0.0
2015-May-06 02:31N 55°06' E 014°42'0 0.0
2015-May-06 01:31N 55°06' E 014°42'0 0.0
2015-May-06 00:31N 55°06' E 014°42'0 0.0
2015-May-05 23:31N 55°06' E 014°42'0 0.0
2015-May-05 22:31N 55°06' E 014°42'0 0.0
2015-May-05 21:31N 55°06' E 014°42'0 0.0
2015-May-05 20:31N 55°06' E 014°42'0 0.0
2015-May-05 19:34N 55°06' E 014°42'0 0.0
2015-May-05 18:33N 55°06' E 014°42'0 0.0
2015-May-05 17:33N 55°06' E 014°42'0 0.0
2015-May-05 16:30N 55°06' E 014°42'0 0.0
2015-May-05 15:33N 55°06' E 014°42'0 0.0
2015-May-05 14:30N 55°06' E 014°42'0 0.0
2015-May-05 13:33N 55°06' E 014°42'0 0.0
2015-May-05 12:33N 55°06' E 014°42'0 0.0
2015-May-05 11:33N 55°06' E 014°42'0 0.0
2015-May-05 10:33N 55°06' E 014°42'0 0.0
2015-May-05 09:33N 55°06' E 014°42'0 0.0
2015-May-05 08:33N 55°06' E 014°42'0 0.0
2015-May-05 07:30N 55°06' E 014°42'0 0.0
2015-May-05 06:33N 55°06' E 014°42'0 0.0
2015-May-05 05:30N 55°06' E 014°42'0 0.0
2015-May-05 04:33N 55°06' E 014°42'0 0.0
2015-May-05 03:30N 55°06' E 014°42'0 0.0
2015-May-05 02:33N 55°06' E 014°42'0 0.0
2015-May-05 01:30N 55°06' E 014°42'0 0.0
2015-May-05 00:33N 55°06' E 014°42'0 0.0
2015-May-04 23:30N 55°06' E 014°42'0 0.0
2015-May-04 22:33N 55°06' E 014°42'0 0.0
2015-May-04 21:33N 55°06' E 014°42'0 0.0
2015-May-04 20:33N 55°06' E 014°42'0 0.0
2015-May-04 19:33N 55°06' E 014°42'0 0.0
2015-May-04 18:30N 55°06' E 014°42'0 0.0
2015-May-04 17:33N 55°06' E 014°42'0 0.0
2015-May-04 16:33N 55°06' E 014°42'0 0.0
2015-May-04 15:33N 55°06' E 014°42'0 0.0
2015-May-04 14:30N 55°06' E 014°42'0 0.0
2015-May-04 13:33N 55°06' E 014°42'0 0.0
2015-May-04 12:33N 55°06' E 014°42'0 0.0
2015-May-04 11:32N 55°06' E 014°42'0 0.0
2015-May-04 10:32N 55°06' E 014°42'0 0.0
2015-May-04 09:32N 55°06' E 014°42'1 1.0
2015-May-04 08:33N 55°05' E 014°40'9 9.1
2015-May-04 07:33N 55°07' E 014°25'3511.2
2015-May-04 04:24N 55°12' E 013°23'911.1
2015-May-04 03:33N 55°13' E 013°07'1110.6
2015-May-04 02:33N 55°15' E 012°49'9 8.9
2015-May-04 01:33N 55°22' E 012°38'1010.4
2015-May-04 00:33N 55°32' E 012°42'9 9.2
2015-May-03 23:33N 55°41' E 012°39'4 3.9
2015-May-03 22:33N 55°45' E 012°41'10 9.7
2015-May-03 21:33N 55°54' E 012°38'9 9.4
2015-May-03 20:33N 56°04' E 012°38'9 9.2
2015-May-03 19:33N 56°09' E 012°24'1110.6
2015-May-03 18:33N 56°15' E 012°08'1111.1
2015-May-03 17:33N 56°23' E 011°54'1111.2
2015-May-03 16:33N 56°30' E 011°39'1111.2
2015-May-03 15:33N 56°38' E 011°24'1210.8
2015-May-03 14:25N 56°47' E 011°09'2010.5
2015-May-03 12:31N 57°04' E 010°49'9 9.6
2015-May-03 11:33N 57°13' E 010°44'1010.0
2015-May-03 10:32N 57°22' E 010°37'5 4.5
2015-May-03 09:31N 57°26' E 010°32'0 0.0
2015-May-03 08:04N 57°26' E 010°32'0 0.0
2015-May-03 06:22N 57°26' E 010°32'0 0.0
2015-May-03 05:34N 57°26' E 010°32'0 0.0
2015-May-03 04:33N 57°26' E 010°32'0 0.0
2015-May-03 02:12N 57°26' E 010°32'0 0.0
2015-May-03 01:12N 57°26' E 010°32'0 0.0
2015-May-03 00:27N 57°26' E 010°32'0 0.0
2015-May-02 23:33N 57°26' E 010°32'0 0.0
2015-May-02 20:33N 57°26' E 010°32'0 0.0
2015-May-02 18:27N 57°26' E 010°32'0 0.0
2015-May-02 17:27N 57°26' E 010°32'0 0.0
2015-May-02 16:33N 57°26' E 010°32'0 0.0
2015-May-02 15:15N 57°26' E 010°32'0 0.0
2015-May-02 13:33N 57°26' E 010°32'0 0.0
2015-May-02 12:33N 57°26' E 010°32'0 0.0
2015-May-02 11:33N 57°26' E 010°32'0 0.0
2015-May-02 09:24N 57°26' E 010°32'0 0.0
2015-May-02 06:27N 57°26' E 010°32'0 0.0
2015-May-02 05:27N 57°26' E 010°32'0 0.0
2015-May-02 02:12N 57°26' E 010°32'0 0.0
2015-May-02 01:15N 57°26' E 010°32'0 0.0
2015-May-01 23:27N 57°26' E 010°32'0 0.0
2015-May-01 22:33N 57°26' E 010°32'0 0.0
2015-May-01 21:33N 57°26' E 010°32'0 0.0
2015-May-01 20:32N 57°26' E 010°32'0 0.0
2015-May-01 18:20N 57°26' E 010°32'0 0.0
2015-May-01 17:14N 57°26' E 010°32'0 0.0
2015-May-01 16:26N 57°26' E 010°32'0 0.0
2015-May-01 15:32N 57°26' E 010°32'0 0.0
2015-May-01 14:32N 57°26' E 010°32'0 0.0
2015-May-01 12:32N 57°26' E 010°32'0 0.0
2015-May-01 11:32N 57°26' E 010°32'0 0.0
2015-May-01 07:23N 57°26' E 010°32'0 0.0
2015-May-01 06:29N 57°26' E 010°32'0 0.0
2015-May-01 04:26N 57°26' E 010°32'0 0.0
2015-May-01 00:08N 57°26' E 010°32'0 0.0
2015-Apr-30 21:08N 57°26' E 010°32'0 0.0
2015-Apr-30 20:20N 57°26' E 010°32'0 0.0
2015-Apr-30 01:25N 57°26' E 010°32'0 0.0
2015-Apr-29 23:28N 57°26' E 010°32'0 0.0
2015-Apr-29 22:28N 57°26' E 010°32'0 0.0
2015-Apr-29 21:16N 57°26' E 010°32'0 0.0
2015-Apr-29 20:31N 57°26' E 010°32'0 0.0
2015-Apr-29 19:25N 57°26' E 010°32'0 0.0
2015-Apr-29 18:19N 57°26' E 010°32'0 0.0
2015-Apr-29 17:19N 57°26' E 010°32'0 0.0
2015-Apr-29 12:16N 57°26' E 010°32'0 0.0
2015-Apr-28 04:24N 57°26' E 010°32'0 0.0
2015-Apr-27 03:23N 57°26' E 010°32'  
Track history (hours):
 
Tides and Currents Weather Stations Pressure Air Temp Water Temp Dewpoint Dewpoint Depression Visibility Wind Speed Wind Dir Waves Ship Positions

Oceanographic research ship Gunnar Thorson (Denmark)

Detailed information on ship capabilities available from University of Delaware's Ocean Information Center.

Last reported at 2015-May-06 17:33 UTC. Time now 2015-May-06 18:32 UTC.
Position N 55°05' E 014°37'.

Length 48 m; draft 4.2 m.

Type: Military. MMSI: 219263000.

Date/timePositionNaut miles runAvg speedWind from/ knotsBaromVisibWave heightAir tempDewpointWater temp
2015-May-06 17:33N 55°05' E 014°37'6 5.7
2015-May-06 16:33N 55°06' E 014°27'0 0.0
2015-May-06 15:33N 55°06' E 014°27'0 0.0
2015-May-06 14:33N 55°06' E 014°27'0 0.0
2015-May-06 13:33N 55°06' E 014°27'0 0.0
2015-May-06 12:33N 55°06' E 014°27'0 0.0
2015-May-06 11:33N 55°06' E 014°27'0 0.1
2015-May-06 10:31N 55°06' E 014°27'6 6.0
2015-May-06 09:33N 55°01' E 014°23'8 7.6
2015-May-06 08:33N 55°04' E 014°35'4 4.2
2015-May-06 07:31N 55°06' E 014°42'0 0.0
2015-May-06 06:31N 55°06' E 014°42'0 0.0
2015-May-06 05:31N 55°06' E 014°42'0 0.0
2015-May-06 04:31N 55°06' E 014°42'0 0.0
2015-May-06 03:31N 55°06' E 014°42'0 0.0
2015-May-06 02:31N 55°06' E 014°42'0 0.0
2015-May-06 01:31N 55°06' E 014°42'0 0.0
2015-May-06 00:31N 55°06' E 014°42'0 0.0
2015-May-05 23:31N 55°06' E 014°42'0 0.0
2015-May-05 22:31N 55°06' E 014°42'0 0.0
2015-May-05 21:31N 55°06' E 014°42'0 0.0
2015-May-05 20:31N 55°06' E 014°42'0 0.0
2015-May-05 19:34N 55°06' E 014°42'0 0.0
2015-May-05 18:33N 55°06' E 014°42'0 0.0
2015-May-05 17:33N 55°06' E 014°42'0 0.0
2015-May-05 16:30N 55°06' E 014°42'0 0.0
2015-May-05 15:33N 55°06' E 014°42'0 0.0
2015-May-05 14:30N 55°06' E 014°42'0 0.0
2015-May-05 13:33N 55°06' E 014°42'0 0.0
2015-May-05 12:33N 55°06' E 014°42'0 0.0
2015-May-05 11:33N 55°06' E 014°42'0 0.0
2015-May-05 10:33N 55°06' E 014°42'0 0.0
2015-May-05 09:33N 55°06' E 014°42'0 0.0
2015-May-05 08:33N 55°06' E 014°42'0 0.0
2015-May-05 07:30N 55°06' E 014°42'0 0.0
2015-May-05 06:33N 55°06' E 014°42'0 0.0
2015-May-05 05:30N 55°06' E 014°42'0 0.0
2015-May-05 04:33N 55°06' E 014°42'0 0.0
2015-May-05 03:30N 55°06' E 014°42'0 0.0
2015-May-05 02:33N 55°06' E 014°42'0 0.0
2015-May-05 01:30N 55°06' E 014°42'0 0.0
2015-May-05 00:33N 55°06' E 014°42'0 0.0
2015-May-04 23:30N 55°06' E 014°42'0 0.0
2015-May-04 22:33N 55°06' E 014°42'0 0.0
2015-May-04 21:33N 55°06' E 014°42'0 0.0
2015-May-04 20:33N 55°06' E 014°42'0 0.0
2015-May-04 19:33N 55°06' E 014°42'0 0.0
2015-May-04 18:30N 55°06' E 014°42'0 0.0
2015-May-04 17:33N 55°06' E 014°42'0 0.0
2015-May-04 16:33N 55°06' E 014°42'0 0.0
2015-May-04 15:33N 55°06' E 014°42'0 0.0
2015-May-04 14:30N 55°06' E 014°42'0 0.0
2015-May-04 13:33N 55°06' E 014°42'0 0.0
2015-May-04 12:33N 55°06' E 014°42'0 0.0
2015-May-04 11:32N 55°06' E 014°42'0 0.0
2015-May-04 10:32N 55°06' E 014°42'0 0.0
2015-May-04 09:32N 55°06' E 014°42'1 1.0
2015-May-04 08:33N 55°05' E 014°40'9 9.1
2015-May-04 07:33N 55°07' E 014°25'3511.2
2015-May-04 04:24N 55°12' E 013°23'911.1
2015-May-04 03:33N 55°13' E 013°07'1110.6
2015-May-04 02:33N 55°15' E 012°49'9 8.9
2015-May-04 01:33N 55°22' E 012°38'1010.4
2015-May-04 00:33N 55°32' E 012°42'9 9.2
2015-May-03 23:33N 55°41' E 012°39'4 3.9
2015-May-03 22:33N 55°45' E 012°41'10 9.7
2015-May-03 21:33N 55°54' E 012°38'9 9.4
2015-May-03 20:33N 56°04' E 012°38'9 9.2
2015-May-03 19:33N 56°09' E 012°24'1110.6
2015-May-03 18:33N 56°15' E 012°08'1111.1
2015-May-03 17:33N 56°23' E 011°54'1111.2
2015-May-03 16:33N 56°30' E 011°39'1111.2
2015-May-03 15:33N 56°38' E 011°24'1210.8
2015-May-03 14:25N 56°47' E 011°09'2010.5
2015-May-03 12:31N 57°04' E 010°49'9 9.6
2015-May-03 11:33N 57°13' E 010°44'1010.0
2015-May-03 10:32N 57°22' E 010°37'5 4.5
2015-May-03 09:31N 57°26' E 010°32'0 0.0
2015-May-03 08:04N 57°26' E 010°32'0 0.0
2015-May-03 06:22N 57°26' E 010°32'0 0.0
2015-May-03 05:34N 57°26' E 010°32'0 0.0
2015-May-03 04:33N 57°26' E 010°32'0 0.0
2015-May-03 02:12N 57°26' E 010°32'0 0.0
2015-May-03 01:12N 57°26' E 010°32'0 0.0
2015-May-03 00:27N 57°26' E 010°32'0 0.0
2015-May-02 23:33N 57°26' E 010°32'0 0.0
2015-May-02 20:33N 57°26' E 010°32'0 0.0
2015-May-02 18:27N 57°26' E 010°32'0 0.0
2015-May-02 17:27N 57°26' E 010°32'0 0.0
2015-May-02 16:33N 57°26' E 010°32'0 0.0
2015-May-02 15:15N 57°26' E 010°32'0 0.0
2015-May-02 13:33N 57°26' E 010°32'0 0.0
2015-May-02 12:33N 57°26' E 010°32'0 0.0
2015-May-02 11:33N 57°26' E 010°32'0 0.0
2015-May-02 09:24N 57°26' E 010°32'0 0.0
2015-May-02 06:27N 57°26' E 010°32'0 0.0
2015-May-02 05:27N 57°26' E 010°32'0 0.0
2015-May-02 02:12N 57°26' E 010°32'0 0.0
2015-May-02 01:15N 57°26' E 010°32'0 0.0
2015-May-01 23:27N 57°26' E 010°32'0 0.0
2015-May-01 22:33N 57°26' E 010°32'0 0.0
2015-May-01 21:33N 57°26' E 010°32'0 0.0
2015-May-01 20:32N 57°26' E 010°32'0 0.0
2015-May-01 18:20N 57°26' E 010°32'0 0.0
2015-May-01 17:14N 57°26' E 010°32'0 0.0
2015-May-01 16:26N 57°26' E 010°32'0 0.0
2015-May-01 15:32N 57°26' E 010°32'0 0.0
2015-May-01 14:32N 57°26' E 010°32'0 0.0
2015-May-01 12:32N 57°26' E 010°32'0 0.0
2015-May-01 11:32N 57°26' E 010°32'0 0.0
2015-May-01 07:23N 57°26' E 010°32'0 0.0
2015-May-01 06:29N 57°26' E 010°32'0 0.0
2015-May-01 04:26N 57°26' E 010°32'0 0.0
2015-May-01 00:08N 57°26' E 010°32'0 0.0
2015-Apr-30 21:08N 57°26' E 010°32'0 0.0
2015-Apr-30 20:20N 57°26' E 010°32'0 0.0
2015-Apr-30 01:25N 57°26' E 010°32'0 0.0
2015-Apr-29 23:28N 57°26' E 010°32'0 0.0
2015-Apr-29 22:28N 57°26' E 010°32'0 0.0
2015-Apr-29 21:16N 57°26' E 010°32'0 0.0
2015-Apr-29 20:31N 57°26' E 010°32'0 0.0
2015-Apr-29 19:25N 57°26' E 010°32'0 0.0
2015-Apr-29 18:19N 57°26' E 010°32'0 0.0
2015-Apr-29 17:19N 57°26' E 010°32'0 0.0
2015-Apr-29 12:16N 57°26' E 010°32'0 0.0
2015-Apr-28 04:24N 57°26' E 010°32'0 0.0
2015-Apr-27 03:23N 57°26' E 010°32'  

Dump ship's entire track history